Tuguegarao, Philippines
Current Conditions -  °F | °C
As of 8:00 PM on Friday 28 Nov 2014 (Local Time) from RPLI Reporting Station
Broken Clouds Broken Clouds  
Wind Chill: 81°   Ceiling: 10000
Heat Index: 86°   Visibility: 6mi
Dew Point: 75°   Wind: 0mph
Humidity: 84%   Direction: NA
Pressure: 29.83"   Gusts: NA
Location:  17.62°N, 121.72°E
Report Text: RPLI 281200Z 00000KT 9999 FEW019 BKN100 27/24 Q1010 NOSIG RMK A2983
Loading
Personal Weather Stations






























Interactive Weather Map New forecast layout! Learn more

10-Day Weather Forecast

Advertisements
Track Severe Weather on mobile